»·PEaware :: N413C KPDX-KKLS

N413C :: KPDX-KKLS

FLIGHT INFORMATION

Flight Status: Arrived
Operator: Privately registered:
United States
More flights under this callsign
Pilot: Alec D. (17934)
Aircraft: BEECH AIRCRAFT BONANZA
(BE35)
More flights by this aircraft type
Origin: KPDX Portland Intl
United States
Destination: KKLS Kelso-Longview
United States
More flights between these airports :: More routes between these airports
Route: +PTLD1 BTG LOATH
File this flight plan on PilotEdge
Remarks:
Altitude:
(Current/Filed)
6,000ft
Speed:
(Current/Filed)
160kts
Departed: 30-Jun-20 08:53 AM
Arrived: 30-Jun-20 09:29 AM
Distance/Time
Traveled:
34nm/0:36
Distance/Time
To Go:
Arrived

Flight Plot

Page will automatically refresh every two minutes.


Map Options




Map Legend


Flown Route
Filed Route
Departure Airport
Arrival Airport
Navaid (VOR, NDB)
Fix

Horizontal Profiles

Position Reports

Time Latitude Longitude Heading Altitude Ground
Speed
30-Jun-20 08:35 45.587026 -122.584196 209 33ft 0kts
30-Jun-20 08:36 45.587026 -122.584196 209 33ft 0kts
30-Jun-20 08:37 45.587025 -122.584197 209 33ft 0kts
30-Jun-20 08:38 45.587018 -122.584202 209 33ft 0kts
30-Jun-20 08:39 45.587010 -122.584209 209 33ft 0kts
30-Jun-20 08:40 45.587002 -122.584215 209 33ft 0kts
30-Jun-20 08:41 45.586994 -122.584221 209 33ft 0kts
30-Jun-20 08:42 45.586986 -122.584227 209 33ft 0kts
30-Jun-20 08:43 45.586978 -122.584234 209 33ft 0kts
30-Jun-20 08:44 45.586970 -122.584240 209 33ft 0kts
30-Jun-20 08:45 45.587183 -122.584407 354 33ft 7kts
30-Jun-20 08:46 45.589729 -122.585239 299 33ft 14kts
30-Jun-20 08:47 45.591631 -122.590034 298 33ft 16kts
30-Jun-20 08:48 45.593861 -122.595689 299 33ft 16kts
30-Jun-20 08:49 45.594680 -122.597176 38 33ft 0kts
30-Jun-20 08:50 45.594689 -122.597166 38 33ft 0kts
30-Jun-20 08:51 45.594695 -122.597159 38 33ft 0kts
30-Jun-20 08:52 45.591816 -122.587928 123 49ft 88kts
30-Jun-20 08:53 45.578536 -122.550258 116 1190ft 109kts
30-Jun-20 08:54 45.564672 -122.509943 118 2232ft 116kts
30-Jun-20 08:55 45.549694 -122.468201 117 3227ft 119kts
30-Jun-20 08:56 45.542471 -122.423805 43 4201ft 125kts
30-Jun-20 08:57 45.570198 -122.432600 324 5270ft 107kts
30-Jun-20 08:58 45.596373 -122.454671 320 6037ft 122kts
30-Jun-20 08:59 45.627213 -122.484681 324 6056ft 141kts
30-Jun-20 09:00 45.662365 -122.513416 323 6039ft 147kts
30-Jun-20 09:01 45.696207 -122.546463 320 6014ft 148kts
30-Jun-20 09:02 45.730881 -122.578157 327 6025ft 148kts
30-Jun-20 09:03 45.761269 -122.615777 304 6026ft 145kts
30-Jun-20 09:04 45.786690 -122.660881 307 6028ft 146kts
30-Jun-20 09:05 45.812483 -122.705771 305 6028ft 146kts
30-Jun-20 09:06 45.838903 -122.750090 308 6037ft 146kts
30-Jun-20 09:07 45.865250 -122.795576 308 6016ft 146kts
30-Jun-20 09:08 45.890286 -122.841672 303 6007ft 147kts
30-Jun-20 09:09 45.914572 -122.888844 307 6016ft 147kts
30-Jun-20 09:10 45.941078 -122.934087 308 5981ft 150kts
30-Jun-20 09:12 45.966840 -122.980205 301 6001ft 148kts
30-Jun-20 09:13 45.993852 -123.025072 307 6004ft 149kts
30-Jun-20 09:14 46.029233 -123.026453 31 6073ft 162kts
30-Jun-20 09:15 46.066291 -123.025036 304 5820ft 153kts
30-Jun-20 09:16 46.093542 -123.071772 312 5454ft 156kts
30-Jun-20 09:17 46.123288 -123.117478 312 4902ft 156kts
30-Jun-20 09:18 46.152102 -123.163095 310 4352ft 153kts
30-Jun-20 09:19 46.190550 -123.172323 9 4014ft 150kts
30-Jun-20 09:20 46.229691 -123.152320 15 3943ft 145kts
30-Jun-20 09:21 46.237635 -123.103254 122 3645ft 153kts
30-Jun-20 09:22 46.221412 -123.048343 110 3328ft 137kts
30-Jun-20 09:23 46.206097 -122.996471 137 2717ft 144kts
30-Jun-20 09:24 46.175014 -122.967813 145 1959ft 123kts
30-Jun-20 09:25 46.150296 -122.937589 143 1337ft 111kts
30-Jun-20 09:26 46.123875 -122.916684 156 1007ft 99kts
30-Jun-20 09:27 46.099634 -122.898068 126 691ft 96kts
30-Jun-20 09:28 46.112601 -122.891898 319 74ft 76kts
30-Jun-20 09:29 46.120533 -122.901376 320 23ft 19kts
30-Jun-20 09:29 46.122492 -122.902793 134 23ft 5kts
30-Jun-20 09:31 46.119999 -122.899839 140 23ft 10kts
30-Jun-20 09:32 46.118301 -122.897160 119 23ft 7kts
30-Jun-20 09:32 46.118438 -122.896501 47 23ft 0kts
30-Jun-20 09:34 46.118445 -122.896491 47 23ft 0kts
30-Jun-20 09:34 46.118448 -122.896486 47 23ft 0kts
30-Jun-20 09:35 46.118448 -122.896486 47 23ft 0kts
30-Jun-20 09:36 46.118448 -122.896486 47 23ft 0kts
30-Jun-20 09:37 46.118448 -122.896486 47 23ft 0kts
30-Jun-20 09:38 46.118448 -122.896486 47 23ft 0kts
30-Jun-20 09:39 46.118448 -122.896486 47 23ft 0kts
30-Jun-20 09:40 46.118448 -122.896486 47 23ft 0kts
30-Jun-20 09:41 46.118448 -122.896486 47 23ft 0kts
30-Jun-20 09:42 46.118448 -122.896486 47 23ft 0kts

Navigation Log

Ident Type
Flight plan parsing failed, navigation log unavailable